createdAt,value
2017-10-24T00:00:29.073Z,64.10
2017-10-24T00:02:57.094Z,64.10
2017-10-24T00:05:24.983Z,64.10
2017-10-24T00:07:52.107Z,64.10
2017-10-24T00:10:19.989Z,64.10
2017-10-24T00:12:47.108Z,64.40
2017-10-24T00:15:15.802Z,64.00
2017-10-24T00:17:43.815Z,64.00
2017-10-24T00:20:10.938Z,63.90
2017-10-24T00:22:38.098Z,64.10
2017-10-24T00:25:06.247Z,64.20
2017-10-24T00:27:33.362Z,64.50
2017-10-24T00:30:00.483Z,64.50
2017-10-24T00:32:28.555Z,64.30
2017-10-24T00:34:55.667Z,65.10
2017-10-24T00:37:22.783Z,64.10
2017-10-24T00:39:50.347Z,64.30
2017-10-24T00:42:17.464Z,64.50
2017-10-24T00:44:45.342Z,64.20
2017-10-24T00:47:13.384Z,64.30
2017-10-24T00:49:40.537Z,64.30
2017-10-24T00:52:08.566Z,64.30
2017-10-24T00:54:36.483Z,64.40
2017-10-24T00:57:04.495Z,64.40
2017-10-24T00:59:32.435Z,64.10
2017-10-24T01:01:59.564Z,64.00
2017-10-24T01:04:27.572Z,64.00
2017-10-24T01:06:54.740Z,64.00
2017-10-24T01:09:21.868Z,64.10
2017-10-24T01:11:49.799Z,63.80
2017-10-24T01:14:17.754Z,63.60
2017-10-24T01:16:45.683Z,64.10
2017-10-24T01:19:12.798Z,64.00
2017-10-24T01:21:40.687Z,63.90
2017-10-24T01:24:07.802Z,64.10
2017-10-24T01:26:34.916Z,63.90
2017-10-24T01:29:02.983Z,63.90
2017-10-24T01:31:31.907Z,63.90
2017-10-24T01:34:00.442Z,63.90
2017-10-24T01:36:27.597Z,63.80
2017-10-24T01:38:55.626Z,63.90
2017-10-24T01:41:22.781Z,63.90
2017-10-24T01:43:50.864Z,64.00
2017-10-24T01:46:18.014Z,63.90
2017-10-24T01:48:45.915Z,63.80
2017-10-24T01:51:13.064Z,63.90
2017-10-24T01:53:40.976Z,64.00
2017-10-24T01:56:08.898Z,64.00
2017-10-24T01:58:36.807Z,64.00
2017-10-24T02:01:04.687Z,63.70
2017-10-24T02:03:31.794Z,63.70
2017-10-24T02:05:58.904Z,63.70
2017-10-24T02:08:26.027Z,63.70
2017-10-24T02:10:53.955Z,63.70
2017-10-24T02:13:21.065Z,63.70
2017-10-24T02:15:48.186Z,64.00
2017-10-24T02:18:16.098Z,63.90
2017-10-24T02:20:43.213Z,63.70
2017-10-24T02:23:11.095Z,63.80
2017-10-24T02:25:38.206Z,63.80
2017-10-24T02:28:05.314Z,63.80
2017-10-24T02:30:32.435Z,63.70
2017-10-24T02:33:00.531Z,64.00
2017-10-24T02:35:27.643Z,63.90
2017-10-24T02:37:56.294Z,64.10
2017-10-24T02:40:23.418Z,64.00
2017-10-24T02:42:50.546Z,64.00
2017-10-24T02:45:19.395Z,63.80
2017-10-24T02:47:46.514Z,63.80
2017-10-24T02:50:14.523Z,63.70
2017-10-24T02:52:41.688Z,64.20
2017-10-24T02:55:10.483Z,64.20
2017-10-24T02:57:38.362Z,64.00
2017-10-24T03:00:07.135Z,64.10
2017-10-24T03:02:35.016Z,64.40
2017-10-24T03:05:03.675Z,64.00
2017-10-24T03:07:31.397Z,64.00
2017-10-24T03:09:58.547Z,64.10
2017-10-24T03:12:25.658Z,64.40
2017-10-24T03:14:53.543Z,64.50
2017-10-24T03:17:22.200Z,63.90
2017-10-24T03:19:49.360Z,63.80
2017-10-24T03:22:17.243Z,63.80
2017-10-24T03:24:45.127Z,63.90
2017-10-24T03:27:13.026Z,63.80
2017-10-24T03:29:40.138Z,64.50
2017-10-24T03:32:08.053Z,64.20
2017-10-24T03:34:35.166Z,64.00
2017-10-24T03:37:03.063Z,63.90
2017-10-24T03:39:30.786Z,63.90
2017-10-24T03:41:57.898Z,63.80
2017-10-24T03:44:25.928Z,63.80
2017-10-24T03:46:53.084Z,63.80
2017-10-24T03:49:20.194Z,64.30
2017-10-24T03:51:48.085Z,63.90
2017-10-24T03:54:16.098Z,63.90
2017-10-24T03:56:43.218Z,64.00
2017-10-24T03:59:10.916Z,63.80
2017-10-24T04:01:38.956Z,63.70
2017-10-24T04:04:06.070Z,63.80
2017-10-24T04:06:34.725Z,64.70
2017-10-24T04:09:01.841Z,64.70
2017-10-24T04:11:30.513Z,64.20
2017-10-24T04:13:58.547Z,64.10
2017-10-24T04:16:25.670Z,64.10
2017-10-24T04:18:53.683Z,64.20
2017-10-24T04:21:22.379Z,63.90
2017-10-24T04:23:51.042Z,64.00
2017-10-24T04:26:18.160Z,64.10
2017-10-24T04:28:45.318Z,64.50
2017-10-24T04:31:13.198Z,63.90
2017-10-24T04:33:41.111Z,63.90
2017-10-24T04:36:08.270Z,64.10
2017-10-24T04:38:36.170Z,63.90
2017-10-24T04:41:03.283Z,64.30
2017-10-24T04:43:31.179Z,64.10
2017-10-24T04:45:58.295Z,63.90
2017-10-24T04:48:26.191Z,63.80
2017-10-24T04:50:53.314Z,63.80
2017-10-24T04:53:21.236Z,63.70
2017-10-24T04:55:48.431Z,63.60
2017-10-24T04:58:16.314Z,63.90
2017-10-24T05:00:43.671Z,63.90
2017-10-24T05:03:10.790Z,64.20
2017-10-24T05:05:38.679Z,64.90
2017-10-24T05:08:05.794Z,64.70
2017-10-24T05:10:33.700Z,64.70
2017-10-24T05:13:01.723Z,64.70
2017-10-24T05:15:28.842Z,64.50
2017-10-24T05:17:56.932Z,64.20
2017-10-24T05:20:24.046Z,64.10
2017-10-24T05:22:51.171Z,64.40
2017-10-24T05:25:19.947Z,64.60
2017-10-24T05:27:47.071Z,64.50
2017-10-24T05:30:14.183Z,64.40
2017-10-24T05:32:42.075Z,64.30
2017-10-24T05:35:09.236Z,63.50
2017-10-24T05:37:37.126Z,64.50
2017-10-24T05:40:04.241Z,64.30
2017-10-24T05:42:31.358Z,64.30
2017-10-24T05:44:59.239Z,64.40
2017-10-24T05:47:26.395Z,64.40
2017-10-24T05:49:53.551Z,64.40
2017-10-24T05:52:20.659Z,64.20
2017-10-24T05:54:47.808Z,64.10
2017-10-24T05:57:14.930Z,64.10
2017-10-24T05:59:42.051Z,64.10
2017-10-24T06:02:09.167Z,63.70
2017-10-24T06:04:37.051Z,64.00
2017-10-24T06:07:04.947Z,63.80
2017-10-24T06:09:32.942Z,63.90
2017-10-24T06:12:00.680Z,63.90
2017-10-24T06:14:27.803Z,64.00
2017-10-24T06:16:55.689Z,64.00
2017-10-24T06:19:22.810Z,64.00
2017-10-24T06:21:50.744Z,63.70
2017-10-24T06:24:17.855Z,63.60
2017-10-24T06:26:45.884Z,63.70
2017-10-24T06:29:13.033Z,63.80
2017-10-24T06:31:40.153Z,64.10
2017-10-24T06:34:07.277Z,63.80
2017-10-24T06:36:34.396Z,63.70
2017-10-24T06:39:02.286Z,63.70
2017-10-24T06:41:29.410Z,63.70
2017-10-24T06:43:56.534Z,63.60
2017-10-24T06:46:23.691Z,63.90
2017-10-24T06:48:50.814Z,63.50
2017-10-24T06:51:17.931Z,63.60
2017-10-24T06:53:46.582Z,63.60
2017-10-24T06:56:13.705Z,63.60
2017-10-24T06:58:40.838Z,63.60
2017-10-24T07:01:08.842Z,63.60
2017-10-24T07:03:36.213Z,63.50
2017-10-24T07:06:04.120Z,63.40
2017-10-24T07:08:32.042Z,63.20
2017-10-24T07:10:59.956Z,63.10
2017-10-24T07:13:27.075Z,63.20
2017-10-24T07:15:54.240Z,63.30
2017-10-24T07:18:22.838Z,63.40
2017-10-24T07:20:50.734Z,63.40
2017-10-24T07:23:18.756Z,63.40
2017-10-24T07:25:45.886Z,63.40
2017-10-24T07:28:13.005Z,63.30
2017-10-24T07:30:40.122Z,63.30
2017-10-24T07:33:08.024Z,64.10
2017-10-24T07:35:35.185Z,64.00
2017-10-24T07:38:02.304Z,64.00
2017-10-24T07:40:30.198Z,63.90
2017-10-24T07:42:57.314Z,63.90
2017-10-24T07:45:26.132Z,64.10
2017-10-24T07:47:54.147Z,63.90
2017-10-24T07:50:22.715Z,63.90
2017-10-24T07:52:51.532Z,64.50
2017-10-24T07:55:19.431Z,64.40
2017-10-24T07:57:46.563Z,64.40
2017-10-24T08:00:15.357Z,64.00
2017-10-24T08:02:42.538Z,64.00
2017-10-24T08:05:10.431Z,63.90
2017-10-24T08:07:37.561Z,63.90
2017-10-24T08:10:05.480Z,63.90
2017-10-24T08:12:33.374Z,64.60
2017-10-24T08:15:01.426Z,64.40
2017-10-24T08:17:29.320Z,64.60
2017-10-24T08:19:56.448Z,64.50
2017-10-24T08:22:24.332Z,64.30
2017-10-24T08:24:51.443Z,64.10
2017-10-24T08:27:19.362Z,64.30
2017-10-24T08:29:46.478Z,64.00
2017-10-24T08:32:13.644Z,63.90
2017-10-24T08:34:41.539Z,64.70
2017-10-24T08:37:09.437Z,64.70
2017-10-24T08:39:36.564Z,65.00
2017-10-24T08:42:04.482Z,64.60
2017-10-24T08:44:32.367Z,64.50
2017-10-24T08:47:01.082Z,64.20
2017-10-24T08:49:28.218Z,64.10
2017-10-24T08:51:55.379Z,64.10
2017-10-24T08:54:24.314Z,64.00
2017-10-24T08:56:51.431Z,65.10
2017-10-24T08:59:18.587Z,65.10
2017-10-24T09:01:45.706Z,64.80
2017-10-24T09:04:13.727Z,64.70
2017-10-24T09:06:40.842Z,64.40
2017-10-24T09:09:13.760Z,64.30
2017-10-24T09:11:41.739Z,64.10
2017-10-24T09:14:14.668Z,64.90
2017-10-24T09:16:49.498Z,65.40
2017-10-24T09:19:23.246Z,65.20
2017-10-24T09:21:50.372Z,65.20
2017-10-24T09:24:17.499Z,65.20
2017-10-24T09:26:45.391Z,64.60
2017-10-24T09:29:12.524Z,64.50
2017-10-24T09:31:41.175Z,65.50
2017-10-24T09:34:08.436Z,65.40
2017-10-24T09:36:36.336Z,65.50
2017-10-24T09:39:04.411Z,65.80
2017-10-24T09:41:31.527Z,65.50
2017-10-24T09:43:59.587Z,66.40
2017-10-24T09:46:28.654Z,65.60
2017-10-24T09:48:56.708Z,65.90
2017-10-24T09:51:29.742Z,65.90
2017-10-24T09:53:57.675Z,65.90
2017-10-24T09:56:40.603Z,65.80
2017-10-24T09:59:10.219Z,65.20
2017-10-24T10:01:53.171Z,65.60
2017-10-24T10:04:21.084Z,66.20
2017-10-24T10:07:08.055Z,65.80
2017-10-24T10:09:35.181Z,65.40
2017-10-24T10:12:02.315Z,65.30
2017-10-24T10:14:29.437Z,65.30
2017-10-24T10:16:57.486Z,65.00
2017-10-24T10:19:24.633Z,64.90
2017-10-24T10:21:51.757Z,64.90
2017-10-24T10:24:22.624Z,65.30
2017-10-24T10:26:49.752Z,65.30
2017-10-24T10:29:16.867Z,65.30
2017-10-24T10:31:44.812Z,65.20
2017-10-24T10:34:12.701Z,65.20
2017-10-24T10:36:40.288Z,65.10
2017-10-24T10:39:08.291Z,65.00
2017-10-24T10:41:36.328Z,65.50
2017-10-24T10:44:05.192Z,65.70
2017-10-24T10:46:32.355Z,65.40
2017-10-24T10:49:00.474Z,65.30
2017-10-24T10:51:27.596Z,65.40
2017-10-24T10:53:55.488Z,65.50
2017-10-24T10:56:23.556Z,65.50
2017-10-24T10:58:51.591Z,65.80
2017-10-24T11:01:18.771Z,66.00
2017-10-24T11:03:45.894Z,65.80
2017-10-24T11:06:13.071Z,65.60
2017-10-24T11:08:41.127Z,65.60
2017-10-24T11:11:09.026Z,65.60
2017-10-24T11:13:36.151Z,65.70
2017-10-24T11:16:03.279Z,65.70
2017-10-24T11:18:30.424Z,66.30
2017-10-24T11:20:57.587Z,66.20
2017-10-24T11:23:24.712Z,66.00
2017-10-24T11:25:53.527Z,65.80
2017-10-24T11:28:20.677Z,65.80
2017-10-24T11:30:48.716Z,65.90
2017-10-24T11:33:17.452Z,66.50
2017-10-24T11:35:45.542Z,66.50
2017-10-24T11:38:13.574Z,66.80
2017-10-24T11:40:40.746Z,66.60
2017-10-24T11:43:09.499Z,66.30
2017-10-24T11:45:36.620Z,66.20
2017-10-24T11:48:03.747Z,66.10
2017-10-24T11:50:30.864Z,66.00
2017-10-24T11:52:58.031Z,66.10
2017-10-24T11:55:25.155Z,66.60
2017-10-24T11:57:52.274Z,66.80
2017-10-24T12:00:19.395Z,66.70
2017-10-24T12:02:47.447Z,66.60
2017-10-24T12:05:15.356Z,66.80
2017-10-24T12:07:42.709Z,66.70
2017-10-24T12:10:10.666Z,66.80
2017-10-24T12:12:38.361Z,66.80
2017-10-24T12:15:07.146Z,67.10
2017-10-24T12:17:34.275Z,67.10
2017-10-24T12:20:02.329Z,66.90
2017-10-24T12:22:29.478Z,67.00
2017-10-24T12:24:57.634Z,66.90
2017-10-24T12:27:25.555Z,66.70
2017-10-24T12:29:53.207Z,66.60
2017-10-24T12:32:20.320Z,66.80
2017-10-24T12:34:47.444Z,67.00
2017-10-24T12:37:14.571Z,66.90
2017-10-24T12:39:41.688Z,66.90
2017-10-24T12:42:09.732Z,66.90
2017-10-24T12:44:52.502Z,66.80
2017-10-24T12:47:19.629Z,66.80
2017-10-24T12:49:48.496Z,67.00
2017-10-24T12:52:15.606Z,66.90
2017-10-24T12:54:42.730Z,67.10
2017-10-24T12:57:25.655Z,67.40
2017-10-24T12:59:53.693Z,67.30
2017-10-24T13:02:20.820Z,67.20
2017-10-24T13:04:48.752Z,67.20
2017-10-24T13:07:15.873Z,67.20
2017-10-24T13:09:43.003Z,67.30
2017-10-24T13:12:10.142Z,67.00
2017-10-24T13:14:37.260Z,67.20
2017-10-24T13:17:04.416Z,67.00
2017-10-24T13:19:31.538Z,66.50
2017-10-24T13:21:58.667Z,66.10
2017-10-24T13:24:25.792Z,66.00
2017-10-24T13:26:53.686Z,65.80
2017-10-24T13:29:20.854Z,65.80
2017-10-24T13:31:48.642Z,65.70
2017-10-24T13:34:15.765Z,65.80
2017-10-24T13:36:43.656Z,65.70
2017-10-24T13:39:10.782Z,66.20
2017-10-24T13:41:37.908Z,66.20
2017-10-24T13:44:05.928Z,65.90
2017-10-24T13:46:33.086Z,65.90
2017-10-24T13:49:00.206Z,65.90
2017-10-24T13:51:27.364Z,66.00
2017-10-24T13:53:54.523Z,66.10
2017-10-24T13:56:21.643Z,66.50
2017-10-24T13:58:49.675Z,66.30
2017-10-24T14:01:17.564Z,66.30
2017-10-24T14:03:44.686Z,66.10
2017-10-24T14:06:17.536Z,66.20
2017-10-24T14:08:51.153Z,66.00
2017-10-24T14:11:18.322Z,66.20
2017-10-24T14:13:45.447Z,66.30
2017-10-24T14:16:12.577Z,66.80
2017-10-24T14:18:39.696Z,66.90
2017-10-24T14:21:08.354Z,66.50
2017-10-24T14:23:35.507Z,66.50
2017-10-24T14:26:02.623Z,66.40
2017-10-24T14:28:30.681Z,66.40
2017-10-24T14:30:57.807Z,66.50
2017-10-24T14:33:26.103Z,66.60
2017-10-24T14:35:54.033Z,66.60
2017-10-24T14:38:21.935Z,67.70
2017-10-24T14:40:49.068Z,67.10
2017-10-24T14:43:16.965Z,66.80
2017-10-24T14:45:44.085Z,66.80
2017-10-24T14:48:12.776Z,66.80
2017-10-24T14:50:41.597Z,66.80
2017-10-24T14:53:09.509Z,66.80
2017-10-24T14:55:36.666Z,66.80
2017-10-24T14:58:03.788Z,67.20
2017-10-24T15:00:31.747Z,67.40
2017-10-24T15:02:59.803Z,67.20
2017-10-24T15:05:27.748Z,67.00
2017-10-24T15:07:56.670Z,67.20
2017-10-24T15:10:23.788Z,67.20
2017-10-24T15:12:52.651Z,67.20
2017-10-24T15:15:20.682Z,67.20
2017-10-24T15:17:48.572Z,67.40
2017-10-24T15:20:17.647Z,67.40
2017-10-24T15:22:45.732Z,67.40
2017-10-24T15:25:12.866Z,67.00
2017-10-24T15:27:40.021Z,66.90
2017-10-24T15:30:07.928Z,66.80
2017-10-24T15:32:35.054Z,66.90
2017-10-24T15:35:03.715Z,67.10
2017-10-24T15:37:31.767Z,67.10
2017-10-24T15:39:59.655Z,66.90
2017-10-24T15:42:27.835Z,66.90
2017-10-24T15:44:55.879Z,66.90
2017-10-24T15:47:23.768Z,67.00
2017-10-24T15:49:50.928Z,67.00
2017-10-24T15:52:18.959Z,66.90
2017-10-24T15:54:47.042Z,67.00
2017-10-24T15:57:15.038Z,67.20
2017-10-24T15:59:42.160Z,67.10
2017-10-24T16:02:10.845Z,67.00
2017-10-24T16:04:39.677Z,66.90
2017-10-24T16:07:08.610Z,66.90
2017-10-24T16:09:35.739Z,67.00
2017-10-24T16:12:02.863Z,67.40
2017-10-24T16:14:29.980Z,67.40
2017-10-24T16:16:57.880Z,66.50
2017-10-24T16:19:24.994Z,66.50
2017-10-24T16:21:52.907Z,66.10
2017-10-24T16:24:22.819Z,66.10
2017-10-24T16:26:50.886Z,66.00
2017-10-24T16:29:18.042Z,66.00
2017-10-24T16:31:45.159Z,66.00
2017-10-24T16:34:13.076Z,66.40
2017-10-24T16:36:41.134Z,66.40
2017-10-24T16:39:09.147Z,66.40
2017-10-24T16:41:37.199Z,66.20
2017-10-24T16:44:04.356Z,66.80
2017-10-24T16:46:31.468Z,66.30
2017-10-24T16:48:58.582Z,66.40
2017-10-24T16:51:26.527Z,66.80
2017-10-24T16:53:54.427Z,66.80
2017-10-24T16:56:22.323Z,66.50
2017-10-24T16:58:49.439Z,66.50
2017-10-24T17:01:17.327Z,66.60
2017-10-24T17:03:45.223Z,66.60
2017-10-24T17:06:12.344Z,67.20
2017-10-24T17:08:39.467Z,66.70
2017-10-24T17:11:06.593Z,66.80
2017-10-24T17:13:33.718Z,67.00
2017-10-24T17:16:01.719Z,66.90
2017-10-24T17:18:29.614Z,66.90
2017-10-24T17:20:57.524Z,67.00
2017-10-24T17:23:24.673Z,66.90
2017-10-24T17:25:52.696Z,67.00
2017-10-24T17:28:20.606Z,67.20
2017-10-24T17:30:47.719Z,67.30
2017-10-24T17:33:16.414Z,67.20
2017-10-24T17:35:44.334Z,66.80
2017-10-24T17:38:11.462Z,66.80
2017-10-24T17:40:39.370Z,66.90
2017-10-24T17:43:07.402Z,66.90
2017-10-24T17:45:34.524Z,66.80
2017-10-24T17:48:02.460Z,67.30
2017-10-24T17:50:29.785Z,67.30
2017-10-24T17:52:56.895Z,67.00
2017-10-24T17:55:24.778Z,67.40
2017-10-24T17:57:52.657Z,67.00
2017-10-24T18:00:20.678Z,66.90
2017-10-24T18:02:47.798Z,67.10
2017-10-24T18:05:14.919Z,67.20
2017-10-24T18:07:42.810Z,67.30
2017-10-24T18:10:10.827Z,67.30
2017-10-24T18:12:37.949Z,67.20
2017-10-24T18:15:05.112Z,67.10
2017-10-24T18:17:32.240Z,67.10
2017-10-24T18:20:00.248Z,67.10
2017-10-24T18:22:27.369Z,67.00
2017-10-24T18:24:54.488Z,67.20
2017-10-24T18:27:22.540Z,67.40
2017-10-24T18:29:50.423Z,67.10
2017-10-24T18:32:18.314Z,67.10
2017-10-24T18:34:45.436Z,67.10
2017-10-24T18:37:14.082Z,66.90
2017-10-24T18:39:41.242Z,66.90
2017-10-24T18:42:08.363Z,67.00
2017-10-24T18:44:35.481Z,67.20
2017-10-24T18:47:02.611Z,67.20
2017-10-24T18:49:30.517Z,66.80
2017-10-24T18:51:58.520Z,66.80
2017-10-24T18:54:26.611Z,66.70
2017-10-24T18:56:54.543Z,67.50
2017-10-24T18:59:22.560Z,67.10
2017-10-24T19:01:50.491Z,67.30
2017-10-24T19:04:17.724Z,67.30
2017-10-24T19:06:44.840Z,67.10
2017-10-24T19:09:12.727Z,67.00
2017-10-24T19:11:40.624Z,66.90
2017-10-24T19:14:07.911Z,66.90
2017-10-24T19:16:36.855Z,67.00
2017-10-24T19:19:04.748Z,67.00
2017-10-24T19:21:31.920Z,67.00
2017-10-24T19:23:59.128Z,66.90
2017-10-24T19:26:26.252Z,66.90
2017-10-24T19:28:54.152Z,67.00
2017-10-24T19:31:21.954Z,67.00
2017-10-24T19:33:49.122Z,66.70
2017-10-24T19:36:17.022Z,66.80
2017-10-24T19:38:44.157Z,66.10
2017-10-24T19:41:12.051Z,65.80
2017-10-24T19:43:39.454Z,65.80
2017-10-24T19:46:06.620Z,65.80
2017-10-24T19:48:34.503Z,66.00
2017-10-24T19:51:02.400Z,66.20
2017-10-24T19:53:29.527Z,66.10
2017-10-24T19:55:56.697Z,66.10
2017-10-24T19:58:23.820Z,66.10
2017-10-24T20:00:51.739Z,66.00
2017-10-24T20:03:19.635Z,66.70
2017-10-24T20:05:47.536Z,66.40
2017-10-24T20:08:14.687Z,66.80
2017-10-24T20:10:41.885Z,66.70
2017-10-24T20:13:10.308Z,66.50
2017-10-24T20:15:38.205Z,66.30
2017-10-24T20:18:05.351Z,66.30
2017-10-24T20:20:33.244Z,67.10
2017-10-24T20:23:00.910Z,66.90
2017-10-24T20:25:28.046Z,66.90
2017-10-24T20:27:55.169Z,66.40
2017-10-24T20:30:22.283Z,66.80
2017-10-24T20:32:50.444Z,66.40
2017-10-24T20:35:17.608Z,66.40
2017-10-24T20:37:46.318Z,67.00
2017-10-24T20:40:14.212Z,66.80
2017-10-24T20:42:41.375Z,66.80
2017-10-24T20:45:09.947Z,66.40
2017-10-24T20:47:37.071Z,66.40
2017-10-24T20:50:04.961Z,66.40
2017-10-24T20:52:32.078Z,66.40
2017-10-24T20:55:00.784Z,66.70
2017-10-24T20:57:28.679Z,66.80
2017-10-24T20:59:55.803Z,66.80
2017-10-24T21:02:23.746Z,66.70
2017-10-24T21:04:50.863Z,66.70
2017-10-24T21:07:18.752Z,66.70
2017-10-24T21:09:45.887Z,66.90
2017-10-24T21:12:13.014Z,67.20
2017-10-24T21:14:41.022Z,67.00
2017-10-24T21:17:08.136Z,66.90
2017-10-24T21:19:35.247Z,66.90
2017-10-24T21:22:03.132Z,66.90
2017-10-24T21:24:31.050Z,67.00
2017-10-24T21:26:59.714Z,67.30
2017-10-24T21:29:27.782Z,67.30
2017-10-24T21:31:54.895Z,67.30
2017-10-24T21:34:22.776Z,67.00
2017-10-24T21:36:50.701Z,67.00
2017-10-24T21:39:17.825Z,66.90
2017-10-24T21:41:44.942Z,67.00
2017-10-24T21:44:12.828Z,67.50
2017-10-24T21:46:40.568Z,67.60
2017-10-24T21:49:08.449Z,67.40
2017-10-24T21:51:36.330Z,67.50
2017-10-24T21:54:03.443Z,67.40
2017-10-24T21:56:30.564Z,67.40
2017-10-24T21:58:57.688Z,67.60
2017-10-24T22:01:24.837Z,67.60
2017-10-24T22:03:52.732Z,67.70
2017-10-24T22:06:19.857Z,67.60
2017-10-24T22:08:46.970Z,67.60
2017-10-24T22:11:14.852Z,67.60
2017-10-24T22:13:42.736Z,67.40
2017-10-24T22:16:10.393Z,67.50
2017-10-24T22:18:37.508Z,67.60
2017-10-24T22:21:04.624Z,67.80
2017-10-24T22:23:31.742Z,67.80
2017-10-24T22:25:59.754Z,67.70
2017-10-24T22:28:27.663Z,67.60
2017-10-24T22:30:55.562Z,67.50
2017-10-24T22:33:22.678Z,67.50
2017-10-24T22:35:50.563Z,67.80
2017-10-24T22:38:17.678Z,67.80
2017-10-24T22:40:45.704Z,67.80
2017-10-24T22:43:12.820Z,67.70
2017-10-24T22:45:40.849Z,67.80
2017-10-24T22:48:07.963Z,67.60
2017-10-24T22:50:35.070Z,67.80
2017-10-24T22:53:02.191Z,68.00
2017-10-24T22:55:29.306Z,67.90
2017-10-24T22:57:56.418Z,67.80
2017-10-24T23:00:23.531Z,67.70
2017-10-24T23:02:50.644Z,67.80
2017-10-24T23:05:18.549Z,68.00
2017-10-24T23:07:45.663Z,68.00
2017-10-24T23:10:14.475Z,68.00
2017-10-24T23:12:41.590Z,68.00
2017-10-24T23:15:09.506Z,67.90
2017-10-24T23:17:36.615Z,67.80
2017-10-24T23:20:04.491Z,67.10
2017-10-24T23:22:36.375Z,66.80
2017-10-24T23:25:03.487Z,66.80
2017-10-24T23:27:32.159Z,67.20
2017-10-24T23:29:59.278Z,66.70
2017-10-24T23:32:27.185Z,66.80
2017-10-24T23:34:54.299Z,66.90
2017-10-24T23:37:22.196Z,67.40
2017-10-24T23:39:49.307Z,67.40
2017-10-24T23:42:17.207Z,67.30
2017-10-24T23:44:44.327Z,67.20
2017-10-24T23:47:11.445Z,67.30
2017-10-24T23:49:39.366Z,67.40
2017-10-24T23:52:07.303Z,67.50
2017-10-24T23:54:34.419Z,67.80
2017-10-24T23:57:03.147Z,67.80
2017-10-24T23:59:30.942Z,67.70
